Time;durP1;ratioP1;P1;durP2;ratioP2;P2;SDS_P1;SDS_P2;PMS_P1;PMS_P2;Temp;Humidity;BMP_temperature;BMP_pressure;BME280_temperature;BME280_humidity;BME280_pressure;Samples;Min_cycle;Max_cycle;Signal;HPM_P1;HPM_P2
2021/10/15 00:01:17;;;;;;;11.93;6.05;;;;;;;;;;5009771;28;20052;-77
2021/10/15 00:03:45;;;;;;;18.17;6.50;;;;;;;;;;5007293;28;20497;-77
2021/10/15 00:06:12;;;;;;;18.52;6.35;;;;;;;;;;4993518;28;20137;-77
2021/10/15 00:08:39;;;;;;;12.27;5.70;;;;;;;;;;4989660;28;20156;-77
2021/10/15 00:11:06;;;;;;;16.98;6.15;;;;;;;;;;5007740;28;20144;-78
2021/10/15 00:13:33;;;;;;;18.73;9.02;;;;;;;;;;5018115;28;20136;-77
2021/10/15 00:16:00;;;;;;;19.67;7.55;;;;;;;;;;5026363;28;20088;-77
2021/10/15 00:18:27;;;;;;;15.15;7.95;;;;;;;;;;5011472;28;20446;-77
2021/10/15 00:20:54;;;;;;;15.27;8.13;;;;;;;;;;4992282;28;20084;-77
2021/10/15 00:23:22;;;;;;;18.33;9.05;;;;;;;;;;4989630;28;20081;-77
2021/10/15 00:25:49;;;;;;;16.35;9.10;;;;;;;;;;4989462;28;20133;-77
2021/10/15 00:28:16;;;;;;;19.48;9.60;;;;;;;;;;4991519;28;20136;-77
2021/10/15 00:30:44;;;;;;;23.65;9.73;;;;;;;;;;5005859;28;20144;-77
2021/10/15 00:33:11;;;;;;;24.60;10.77;;;;;;;;;;5001399;28;20165;-77
2021/10/15 00:35:39;;;;;;;19.48;10.90;;;;;;;;;;5015066;28;20058;-77
2021/10/15 00:38:06;;;;;;;22.13;11.70;;;;;;;;;;5019855;28;20510;-77
2021/10/15 00:40:33;;;;;;;21.55;11.57;;;;;;;;;;4998707;28;20049;-77
2021/10/15 00:43:00;;;;;;;22.88;12.38;;;;;;;;;;5016702;28;20049;-77
2021/10/15 00:45:27;;;;;;;29.65;12.80;;;;;;;;;;5010537;28;20148;-77
2021/10/15 00:47:55;;;;;;;24.65;13.50;;;;;;;;;;5021221;28;20677;-77
2021/10/15 00:50:22;;;;;;;29.63;13.65;;;;;;;;;;4989750;28;20058;-76
2021/10/15 00:52:49;;;;;;;31.35;14.60;;;;;;;;;;5006691;28;20046;-77
2021/10/15 00:55:16;;;;;;;32.83;14.75;;;;;;;;;;5016598;28;20148;-77
2021/10/15 00:57:43;;;;;;;23.95;14.07;;;;;;;;;;5020108;28;20108;-77
2021/10/15 01:00:11;;;;;;;29.50;16.25;;;;;;;;;;5000843;28;20136;-78
2021/10/15 01:02:38;;;;;;;35.22;16.38;;;;;;;;;;5016894;28;20144;-78
2021/10/15 01:05:06;;;;;;;37.90;18.13;;;;;;;;;;5018218;28;20100;-77
2021/10/15 01:07:33;;;;;;;31.65;17.17;;;;;;;;;;5007356;28;20133;-78
2021/10/15 01:10:00;;;;;;;31.95;17.02;;;;;;;;;;5010291;28;20410;-78
2021/10/15 01:12:27;;;;;;;40.55;17.60;;;;;;;;;;5037467;28;20092;-77
2021/10/15 01:14:54;;;;;;;41.53;18.48;;;;;;;;;;5008592;28;20508;-77
2021/10/15 01:17:21;;;;;;;42.20;18.83;;;;;;;;;;4990948;28;20133;-77
2021/10/15 01:19:53;;;;;;;34.85;18.55;;;;;;;;;;5004284;28;20042;-78
2021/10/15 01:22:20;;;;;;;44.90;20.42;;;;;;;;;;4997581;28;20053;-77
2021/10/15 01:24:47;;;;;;;39.53;20.95;;;;;;;;;;5024936;28;20048;-78
2021/10/15 01:27:15;;;;;;;40.67;19.45;;;;;;;;;;5013984;28;20053;-77
2021/10/15 01:29:42;;;;;;;39.00;21.10;;;;;;;;;;5025921;28;20049;-77
2021/10/15 01:32:11;;;;;;;39.90;20.75;;;;;;;;;;5001503;28;20050;-77
2021/10/15 01:34:39;;;;;;;44.10;22.00;;;;;;;;;;5004655;28;20125;-78
2021/10/15 01:37:06;;;;;;;43.28;22.10;;;;;;;;;;4993482;28;20087;-77
2021/10/15 01:39:34;;;;;;;43.20;21.85;;;;;;;;;;5016024;28;20056;-78
2021/10/15 01:42:01;;;;;;;46.00;21.65;;;;;;;;;;5042247;28;20057;-77
2021/10/15 01:44:28;;;;;;;41.90;22.38;;;;;;;;;;5003408;28;20089;-77
2021/10/15 01:46:55;;;;;;;41.42;22.25;;;;;;;;;;5006358;28;20136;-77
2021/10/15 01:49:22;;;;;;;40.33;21.25;;;;;;;;;;5009758;28;20145;-77
2021/10/15 01:51:49;;;;;;;43.90;22.67;;;;;;;;;;5028927;28;20124;-77
2021/10/15 01:54:17;;;;;;;43.25;22.45;;;;;;;;;;5009285;28;20321;-77
2021/10/15 01:56:44;;;;;;;43.10;21.05;;;;;;;;;;4999296;28;20046;-76
2021/10/15 01:59:11;;;;;;;45.88;22.75;;;;;;;;;;5005902;28;20168;-77
2021/10/15 02:01:40;;;;;;;44.85;23.30;;;;;;;;;;5015194;28;20052;-77
2021/10/15 02:04:07;;;;;;;48.60;22.20;;;;;;;;;;5001097;28;20056;-76
2021/10/15 02:06:34;;;;;;;42.40;22.20;;;;;;;;;;5021761;28;20140;-77
2021/10/15 02:09:01;;;;;;;50.30;23.08;;;;;;;;;;5027688;28;20073;-76
2021/10/15 02:11:28;;;;;;;41.90;21.08;;;;;;;;;;5028410;28;20145;-77
2021/10/15 02:13:55;;;;;;;37.65;20.90;;;;;;;;;;5034614;28;20077;-76
2021/10/15 02:16:23;;;;;;;43.47;22.17;;;;;;;;;;5007872;28;20486;-77
2021/10/15 02:18:50;;;;;;;44.58;22.85;;;;;;;;;;5007199;28;20060;-77
2021/10/15 02:21:17;;;;;;;41.83;22.13;;;;;;;;;;5024030;28;20140;-77
2021/10/15 02:23:45;;;;;;;47.90;22.08;;;;;;;;;;5008570;28;20084;-77
2021/10/15 02:26:20;;;;;;;44.60;21.83;;;;;;;;;;5015552;28;20160;-77
2021/10/15 02:28:48;;;;;;;38.47;22.23;;;;;;;;;;5027310;28;20466;-77
2021/10/15 02:31:15;;;;;;;38.78;20.45;;;;;;;;;;5034375;28;20780;-77
2021/10/15 02:33:42;;;;;;;38.80;20.73;;;;;;;;;;5009728;28;20041;-77
2021/10/15 02:36:09;;;;;;;42.35;21.23;;;;;;;;;;5012805;28;20457;-77
2021/10/15 02:38:36;;;;;;;38.33;20.33;;;;;;;;;;5021412;28;20526;-78
2021/10/15 02:41:03;;;;;;;43.35;21.65;;;;;;;;;;5019252;28;20136;-77
2021/10/15 02:43:31;;;;;;;44.65;22.00;;;;;;;;;;5022592;28;20077;-77
2021/10/15 02:45:58;;;;;;;44.13;22.88;;;;;;;;;;4995735;28;20129;-76
2021/10/15 02:48:25;;;;;;;45.53;23.00;;;;;;;;;;5009984;28;20125;-77
2021/10/15 02:50:52;;;;;;;49.47;23.00;;;;;;;;;;5014164;28;20467;-77
2021/10/15 02:53:19;;;;;;;39.53;22.42;;;;;;;;;;5020502;28;20049;-77
2021/10/15 02:55:46;;;;;;;44.20;23.98;;;;;;;;;;5010008;28;20061;-77
2021/10/15 02:58:13;;;;;;;39.55;22.30;;;;;;;;;;5009752;28;20091;-77
2021/10/15 03:00:41;;;;;;;43.13;23.15;;;;;;;;;;5004748;28;20148;-77
2021/10/15 03:03:08;;;;;;;35.28;21.42;;;;;;;;;;5027265;28;20056;-77
2021/10/15 03:05:35;;;;;;;37.95;21.65;;;;;;;;;;5033750;28;20079;-77
2021/10/15 03:08:02;;;;;;;40.22;21.05;;;;;;;;;;5003959;28;20128;-77
2021/10/15 03:10:30;;;;;;;39.63;22.05;;;;;;;;;;5026020;28;20120;-77
2021/10/15 03:12:57;;;;;;;41.97;23.48;;;;;;;;;;5013430;28;20117;-77
2021/10/15 03:15:24;;;;;;;43.42;23.33;;;;;;;;;;5002747;28;20081;-77
2021/10/15 03:17:51;;;;;;;41.55;22.33;;;;;;;;;;5009209;28;20604;-77
2021/10/15 03:20:19;;;;;;;45.88;24.05;;;;;;;;;;5018851;28;20046;-77
2021/10/15 03:22:46;;;;;;;44.97;23.90;;;;;;;;;;5019698;28;20550;-77
2021/10/15 03:25:13;;;;;;;52.42;26.50;;;;;;;;;;5019227;28;20054;-77
2021/10/15 03:27:40;;;;;;;46.08;25.50;;;;;;;;;;5008386;28;20137;-77
2021/10/15 03:30:08;;;;;;;44.47;23.95;;;;;;;;;;5015893;28;20133;-77
2021/10/15 03:32:35;;;;;;;50.63;25.08;;;;;;;;;;5011823;28;20133;-77
2021/10/15 03:35:03;;;;;;;43.28;23.23;;;;;;;;;;5008410;28;20124;-77
2021/10/15 03:37:30;;;;;;;45.33;23.35;;;;;;;;;;4997447;28;20129;-77
2021/10/15 03:39:57;;;;;;;41.90;22.75;;;;;;;;;;4987947;28;20072;-77
2021/10/15 03:42:25;;;;;;;45.03;22.65;;;;;;;;;;5012210;28;20081;-77
2021/10/15 03:44:52;;;;;;;43.10;23.08;;;;;;;;;;5004651;28;20046;-77
2021/10/15 03:47:19;;;;;;;41.17;23.40;;;;;;;;;;5009842;28;20073;-76
2021/10/15 03:49:46;;;;;;;41.05;21.92;;;;;;;;;;5006362;28;20056;-76
2021/10/15 03:52:14;;;;;;;41.70;22.35;;;;;;;;;;5009999;28;20128;-76
2021/10/15 03:54:41;;;;;;;51.38;21.63;;;;;;;;;;5006869;28;20140;-77
2021/10/15 03:57:08;;;;;;;39.92;22.40;;;;;;;;;;5006670;28;20593;-77
2021/10/15 03:59:36;;;;;;;41.85;21.27;;;;;;;;;;5001105;28;20135;-77
2021/10/15 04:02:03;;;;;;;39.90;21.92;;;;;;;;;;5021528;28;20120;-76
2021/10/15 04:04:30;;;;;;;39.30;21.52;;;;;;;;;;5007573;28;20478;-77
2021/10/15 04:06:57;;;;;;;38.35;20.55;;;;;;;;;;5025505;28;20064;-77
2021/10/15 04:09:24;;;;;;;41.22;21.00;;;;;;;;;;5009739;28;20136;-77
2021/10/15 04:11:52;;;;;;;36.42;21.13;;;;;;;;;;5006888;28;20128;-77
2021/10/15 04:14:19;;;;;;;54.03;21.17;;;;;;;;;;5023280;28;20128;-77
2021/10/15 04:16:46;;;;;;;34.80;19.58;;;;;;;;;;5002240;28;20880;-76
2021/10/15 04:19:13;;;;;;;37.95;18.58;;;;;;;;;;5011069;28;20100;-77
2021/10/15 04:21:41;;;;;;;38.75;20.73;;;;;;;;;;5016255;28;20073;-76
2021/10/15 04:24:08;;;;;;;41.20;18.75;;;;;;;;;;5014283;28;20128;-77
2021/10/15 04:26:35;;;;;;;35.65;20.05;;;;;;;;;;5016924;28;20542;-77
2021/10/15 04:29:02;;;;;;;28.55;18.13;;;;;;;;;;5000050;28;20132;-77
2021/10/15 04:31:29;;;;;;;33.60;17.95;;;;;;;;;;4999947;28;20132;-77
2021/10/15 04:33:56;;;;;;;33.05;17.80;;;;;;;;;;4996274;28;20063;-77
2021/10/15 04:36:24;;;;;;;31.42;16.95;;;;;;;;;;5014243;28;20419;-77
2021/10/15 04:38:51;;;;;;;33.08;17.75;;;;;;;;;;5014581;28;20077;-76
2021/10/15 04:41:18;;;;;;;31.67;16.15;;;;;;;;;;5023730;28;20646;-77
2021/10/15 04:43:45;;;;;;;30.17;16.88;;;;;;;;;;5013448;28;20829;-77
2021/10/15 04:46:12;;;;;;;31.38;17.38;;;;;;;;;;4997349;28;20063;-77
2021/10/15 04:48:39;;;;;;;33.40;17.13;;;;;;;;;;5015227;28;20064;-77
2021/10/15 04:51:06;;;;;;;33.53;17.40;;;;;;;;;;5001928;28;20561;-77
2021/10/15 04:53:33;;;;;;;37.45;16.65;;;;;;;;;;5000506;28;20572;-77
2021/10/15 04:56:01;;;;;;;30.15;16.25;;;;;;;;;;5021117;28;20161;-77
2021/10/15 04:58:28;;;;;;;31.50;16.42;;;;;;;;;;5017401;28;20478;-76
2021/10/15 05:00:55;;;;;;;31.15;16.40;;;;;;;;;;5037567;28;20040;-78
2021/10/15 05:03:22;;;;;;;28.08;16.08;;;;;;;;;;5005780;28;20491;-77
2021/10/15 05:05:50;;;;;;;32.88;15.88;;;;;;;;;;5005433;28;20046;-76
2021/10/15 05:08:17;;;;;;;32.45;15.68;;;;;;;;;;5006640;28;20050;-78
2021/10/15 05:10:45;;;;;;;33.45;15.10;;;;;;;;;;5031015;28;20057;-80
2021/10/15 05:13:14;;;;;;;27.15;15.55;;;;;;;;;;5045100;28;20235;-81
2021/10/15 05:15:45;;;;;;;31.45;15.45;;;;;;;;;;4999880;28;20128;-77
2021/10/15 05:18:12;;;;;;;28.50;15.95;;;;;;;;;;5013924;28;20126;-83
2021/10/15 05:20:41;;;;;;;31.85;15.48;;;;;;;;;;4996840;28;20050;-82
2021/10/15 05:23:09;;;;;;;30.55;14.18;;;;;;;;;;5014447;28;20138;-83
2021/10/15 05:25:36;;;;;;;33.63;15.32;;;;;;;;;;4997825;28;20081;-85
2021/10/15 05:28:04;;;;;;;27.48;13.80;;;;;;;;;;5008362;28;20037;-81
2021/10/15 05:30:31;;;;;;;38.25;14.57;;;;;;;;;;5037019;28;20124;-80
2021/10/15 05:32:59;;;;;;;26.73;13.70;;;;;;;;;;5036318;28;20132;-78
2021/10/15 05:35:26;;;;;;;29.55;14.32;;;;;;;;;;5012540;28;20073;-78
2021/10/15 05:37:57;;;;;;;28.25;14.45;;;;;;;;;;5013911;28;20053;-82
2021/10/15 05:40:24;;;;;;;26.13;13.05;;;;;;;;;;5014759;28;20147;-81
2021/10/15 05:42:51;;;;;;;29.17;14.13;;;;;;;;;;5029636;28;20080;-81
2021/10/15 05:45:19;;;;;;;26.15;14.50;;;;;;;;;;5012189;28;20076;-90
2021/10/15 05:47:52;;;;;;;25.58;13.35;;;;;;;;;;5034911;28;20057;-91
2021/10/15 05:50:20;;;;;;;25.10;12.13;;;;;;;;;;5027667;28;20092;-92
2021/10/15 06:00:08;;;;;;;21.70;12.38;;;;;;;;;;5061169;28;20044;-92
2021/10/15 06:17:10;;;;;;;20.95;11.27;;;;;;;;;;5055004;28;20154;-90
2021/10/15 06:22:20;;;;;;;22.80;10.57;;;;;;;;;;5054781;28;20045;-91
2021/10/15 06:24:49;;;;;;;21.70;10.77;;;;;;;;;;5037238;28;20049;-90
2021/10/15 06:27:18;;;;;;;22.38;10.10;;;;;;;;;;5036601;28;20449;-89
2021/10/15 06:29:46;;;;;;;25.73;11.73;;;;;;;;;;5036405;28;20064;-92
2021/10/15 06:32:13;;;;;;;25.50;11.13;;;;;;;;;;5028241;28;20131;-91
2021/10/15 06:34:40;;;;;;;23.27;10.13;;;;;;;;;;5030863;28;20049;-90
2021/10/15 06:37:08;;;;;;;21.80;10.00;;;;;;;;;;4997316;28;20058;-91
2021/10/15 06:39:35;;;;;;;21.17;9.55;;;;;;;;;;5023001;28;20787;-90
2021/10/15 06:42:03;;;;;;;20.40;9.63;;;;;;;;;;5023701;28;20040;-90
2021/10/15 06:44:30;;;;;;;21.13;10.43;;;;;;;;;;5031165;28;20060;-90
2021/10/15 06:46:57;;;;;;;21.27;10.40;;;;;;;;;;5012810;28;20136;-90
2021/10/15 06:49:26;;;;;;;25.48;10.48;;;;;;;;;;5023044;28;20045;-90
2021/10/15 06:51:53;;;;;;;22.77;10.43;;;;;;;;;;5020628;28;20049;-90
2021/10/15 06:54:20;;;;;;;20.85;10.15;;;;;;;;;;5017671;28;20059;-90
2021/10/15 06:56:47;;;;;;;22.63;10.10;;;;;;;;;;5034040;28;20136;-89
2021/10/15 06:59:15;;;;;;;18.60;10.27;;;;;;;;;;5016431;28;20108;-89
2021/10/15 07:01:42;;;;;;;17.55;9.73;;;;;;;;;;5021094;28;20106;-90
2021/10/15 07:04:09;;;;;;;24.10;11.63;;;;;;;;;;5017853;28;20403;-90
2021/10/15 07:06:37;;;;;;;22.63;9.73;;;;;;;;;;5015498;28;20097;-90
2021/10/15 07:09:04;;;;;;;21.20;10.90;;;;;;;;;;5015709;28;20050;-90
2021/10/15 07:11:34;;;;;;;22.38;10.20;;;;;;;;;;5017597;28;20049;-90
2021/10/15 07:14:01;;;;;;;20.63;10.52;;;;;;;;;;5015748;28;20482;-90
2021/10/15 07:16:28;;;;;;;20.77;10.88;;;;;;;;;;5015348;28;20057;-89
2021/10/15 07:18:55;;;;;;;23.38;10.35;;;;;;;;;;5005833;28;20057;-90
2021/10/15 07:21:23;;;;;;;24.23;10.07;;;;;;;;;;5004444;28;20045;-90
2021/10/15 07:23:50;;;;;;;24.58;10.85;;;;;;;;;;5008517;28;20070;-90
2021/10/15 07:26:17;;;;;;;24.75;11.18;;;;;;;;;;5005905;28;20042;-91
2021/10/15 07:28:44;;;;;;;22.95;11.63;;;;;;;;;;5003902;28;20113;-92
2021/10/15 07:31:20;;;;;;;27.52;11.65;;;;;;;;;;5017642;28;20045;-91
2021/10/15 07:33:48;;;;;;;27.50;12.52;;;;;;;;;;5006395;28;20091;-89
2021/10/15 07:36:16;;;;;;;24.50;12.45;;;;;;;;;;4997906;28;20054;-88
2021/10/15 07:38:43;;;;;;;28.33;12.07;;;;;;;;;;4995546;28;20100;-88
2021/10/15 07:41:11;;;;;;;26.60;11.90;;;;;;;;;;5015091;28;20064;-88
2021/10/15 07:43:38;;;;;;;24.85;12.52;;;;;;;;;;5030759;28;20662;-87
2021/10/15 07:46:05;;;;;;;32.47;13.05;;;;;;;;;;5030889;28;20103;-87
2021/10/15 07:48:32;;;;;;;23.55;11.70;;;;;;;;;;5024121;28;20081;-87
2021/10/15 07:50:59;;;;;;;23.88;11.88;;;;;;;;;;4999749;28;20050;-87
2021/10/15 07:53:27;;;;;;;24.42;13.15;;;;;;;;;;5012530;28;20149;-86
2021/10/15 07:55:54;;;;;;;26.70;12.50;;;;;;;;;;5026704;28;20418;-86
2021/10/15 07:58:21;;;;;;;28.10;13.90;;;;;;;;;;5003735;28;20126;-86
2021/10/15 08:00:49;;;;;;;26.23;13.88;;;;;;;;;;5020167;28;20125;-87
2021/10/15 08:03:17;;;;;;;29.40;14.55;;;;;;;;;;5014654;28;20050;-85
2021/10/15 08:05:46;;;;;;;34.30;14.85;;;;;;;;;;5003010;28;20117;-86
2021/10/15 08:08:13;;;;;;;30.73;14.50;;;;;;;;;;4995859;28;20077;-87
2021/10/15 08:10:40;;;;;;;34.08;14.82;;;;;;;;;;5006990;28;20084;-88
2021/10/15 08:13:07;;;;;;;35.88;15.13;;;;;;;;;;5033829;28;20669;-88
2021/10/15 08:15:37;;;;;;;35.20;15.80;;;;;;;;;;5015928;28;20490;-88
2021/10/15 08:18:20;;;;;;;39.22;12.18;;;;;;;;;;5015568;28;20104;-95
2021/10/15 08:20:59;;;;;;;23.30;4.72;;;;;;;;;;5017765;28;20076;-92
2021/10/15 08:23:27;;;;;;;13.63;4.40;;;;;;;;;;5014826;28;20073;-90
2021/10/15 08:26:12;;;;;;;5.90;2.20;;;;;;;;;;5031444;28;20100;-89
2021/10/15 08:28:40;;;;;;;7.23;2.30;;;;;;;;;;5030735;28;20522;-88
2021/10/15 08:31:17;;;;;;;6.18;2.28;;;;;;;;;;5038383;28;20057;-87
2021/10/15 08:33:57;;;;;;;9.90;2.58;;;;;;;;;;5024250;28;20061;-87
2021/10/15 08:36:24;;;;;;;7.60;3.15;;;;;;;;;;5017364;28;20122;-86
2021/10/15 08:38:58;;;;;;;11.18;3.42;;;;;;;;;;5013340;28;20502;-86
2021/10/15 08:41:26;;;;;;;6.88;3.15;;;;;;;;;;5044779;28;20081;-86
2021/10/15 08:43:55;;;;;;;11.45;3.20;;;;;;;;;;5036359;28;20680;-88
2021/10/15 08:46:23;;;;;;;8.07;3.53;;;;;;;;;;5038680;28;20072;-92
2021/10/15 08:52:13;;;;;;;7.85;3.50;;;;;;;;;;5017948;28;20137;-91
2021/10/15 08:54:43;;;;;;;14.73;3.33;;;;;;;;;;5002572;28;20136;-90
2021/10/15 08:57:11;;;;;;;8.82;4.25;;;;;;;;;;5018201;28;20699;-88
2021/10/15 08:59:42;;;;;;;20.38;4.50;;;;;;;;;;5005866;28;20050;-90
2021/10/15 09:02:37;;;;;;;10.88;2.97;;;;;;;;;;5048668;28;20490;-89
2021/10/15 09:05:05;;;;;;;10.23;2.50;;;;;;;;;;5011035;28;20450;-88
2021/10/15 09:07:32;;;;;;;12.48;0.95;;;;;;;;;;4998161;28;20054;-88
2021/10/15 09:10:09;;;;;;;3.42;1.00;;;;;;;;;;5013642;28;20072;-88
2021/10/15 09:12:43;;;;;;;2.95;0.77;;;;;;;;;;5016141;28;20050;-90
2021/10/15 09:15:10;;;;;;;6.43;1.10;;;;;;;;;;4998881;28;20081;-89
2021/10/15 09:17:47;;;;;;;11.52;1.40;;;;;;;;;;5027638;28;20045;-89
2021/10/15 09:20:26;;;;;;;7.65;1.30;;;;;;;;;;5035351;28;20471;-89
2021/10/15 09:23:07;;;;;;;10.85;2.65;;;;;;;;;;5035284;28;20069;-90
2021/10/15 09:25:35;;;;;;;8.48;1.00;;;;;;;;;;5019352;28;20078;-91
2021/10/15 09:28:10;;;;;;;12.13;1.15;;;;;;;;;;5019325;28;20570;-91
2021/10/15 09:30:47;;;;;;;12.77;2.28;;;;;;;;;;5018832;28;20056;-91
2021/10/15 09:33:16;;;;;;;11.48;1.80;;;;;;;;;;5019586;28;20075;-92
2021/10/15 09:42:23;;;;;;;5.72;1.52;;;;;;;;;;5036744;28;20092;-91
2021/10/15 09:44:51;;;;;;;3.45;1.10;;;;;;;;;;5035919;28;20045;-93
2021/10/15 09:47:51;;;;;;;9.98;1.60;;;;;;;;;;5018887;28;20108;-94
2021/10/15 09:50:20;;;;;;;13.90;1.70;;;;;;;;;;5019398;28;20060;-92
2021/10/15 09:53:05;;;;;;;9.93;1.77;;;;;;;;;;5018477;28;20095;-92
2021/10/15 09:55:32;;;;;;;15.07;1.88;;;;;;;;;;5018943;28;20136;-92
2021/10/15 09:58:17;;;;;;;9.40;1.30;;;;;;;;;;5036252;28;20049;-90
2021/10/15 10:00:45;;;;;;;;;;;;;;;;;;5025557;28;20119;-89
2021/10/15 10:03:12;;;;;;;7.13;1.13;;;;;;;;;;5020281;28;19928;-88
2021/10/15 10:05:39;;;;;;;8.40;1.70;;;;;;;;;;5026008;28;20088;-90
2021/10/15 10:08:07;;;;;;;6.78;1.70;;;;;;;;;;5017849;28;20064;-92
2021/10/15 10:10:35;;;;;;;9.98;1.35;;;;;;;;;;5035783;28;20505;-92
2021/10/15 10:17:02;;;;;;;10.68;1.15;;;;;;;;;;5036076;28;20068;-93
2021/10/15 10:19:36;;;;;;;13.23;1.90;;;;;;;;;;5011556;28;20136;-95
2021/10/15 10:25:33;;;;;;;9.32;1.77;;;;;;;;;;5036119;28;20090;-93
2021/10/15 10:28:14;;;;;;;11.52;1.42;;;;;;;;;;5005899;28;20050;-95
2021/10/15 10:30:43;;;;;;;8.52;1.83;;;;;;;;;;5010952;28;20393;-96
2021/10/15 10:33:10;;;;;;;6.72;2.30;;;;;;;;;;5019406;28;20080;-94
2021/10/15 10:35:38;;;;;;;14.32;2.35;;;;;;;;;;5009306;28;20084;-94
2021/10/15 10:38:26;;;;;;;15.98;2.25;;;;;;;;;;5034587;28;20057;-91
2021/10/15 10:41:00;;;;;;;13.73;2.15;;;;;;;;;;5006497;28;20054;-95
2021/10/15 10:43:28;;;;;;;10.32;2.00;;;;;;;;;;5015458;28;20041;-93
2021/10/15 10:46:07;;;;;;;12.85;2.22;;;;;;;;;;5015321;28;20050;-94
2021/10/15 10:48:54;;;;;;;12.88;2.03;;;;;;;;;;4997680;28;20490;-94
2021/10/15 10:51:27;;;;;;;6.32;1.50;;;;;;;;;;5014485;28;20173;-95
2021/10/15 10:53:58;;;;;;;14.50;2.00;;;;;;;;;;4998313;28;20085;-94
2021/10/15 10:56:40;;;;;;;11.15;2.40;;;;;;;;;;5019322;28;20053;-95
2021/10/15 10:59:20;;;;;;;15.05;1.77;;;;;;;;;;5026858;28;20056;-95
2021/10/15 11:01:53;;;;;;;8.80;1.70;;;;;;;;;;5036974;28;20116;-95
2021/10/15 11:04:28;;;;;;;13.00;2.25;;;;;;;;;;5049367;28;20079;-92
2021/10/15 11:06:59;;;;;;;11.73;1.95;;;;;;;;;;5028768;28;20042;-95
2021/10/15 11:09:30;;;;;;;7.53;1.70;;;;;;;;;;5037444;28;20103;-86
2021/10/15 11:11:57;;;;;;;9.32;1.50;;;;;;;;;;5029706;28;20055;-86
2021/10/15 11:14:44;;;;;;;13.82;2.13;;;;;;;;;;5029737;28;20541;-86
2021/10/15 11:17:12;;;;;;;11.30;1.52;;;;;;;;;;5009779;28;20153;-85
2021/10/15 11:19:40;;;;;;;12.95;1.77;;;;;;;;;;4995205;28;20138;-85
2021/10/15 11:22:07;;;;;;;11.05;1.42;;;;;;;;;;4995058;28;20129;-85
2021/10/15 11:24:34;;;;;;;6.10;1.20;;;;;;;;;;4994881;28;20554;-86
2021/10/15 11:27:12;;;;;;;10.95;1.63;;;;;;;;;;4994633;28;20145;-86
2021/10/15 11:29:54;;;;;;;15.25;1.98;;;;;;;;;;5014532;28;20072;-86
2021/10/15 11:32:28;;;;;;;7.68;1.13;;;;;;;;;;5026544;28;20123;-85
2021/10/15 11:35:08;;;;;;;7.65;1.33;;;;;;;;;;5021544;28;20133;-82
2021/10/15 11:38:00;;;;;;;110.82;14.23;;;;;;;;;;5025285;28;20136;-84
2021/10/15 11:40:27;;;;;;;16.15;2.17;;;;;;;;;;5033170;28;20044;-87
2021/10/15 11:42:55;;;;;;;20.08;1.77;;;;;;;;;;5005774;28;20108;-84
2021/10/15 11:45:30;;;;;;;8.05;1.88;;;;;;;;;;5012271;28;20136;-84
2021/10/15 11:48:01;;;;;;;18.88;2.35;;;;;;;;;;4995488;28;20046;-88
2021/10/15 11:50:45;;;;;;;9.60;2.08;;;;;;;;;;4994862;28;20129;-88
2021/10/15 11:53:14;;;;;;;11.65;2.15;;;;;;;;;;4995453;28;20077;-91
2021/10/15 11:55:42;;;;;;;12.95;2.08;;;;;;;;;;4996753;28;20503;-91
2021/10/15 11:58:16;;;;;;;9.77;2.10;;;;;;;;;;4995809;28;20136;-91
2021/10/15 12:01:01;;;;;;;16.45;2.35;;;;;;;;;;5019128;28;20128;-91
2021/10/15 12:03:52;;;;;;;9.30;1.67;;;;;;;;;;5030015;28;20398;-91
2021/10/15 12:06:35;;;;;;;13.07;2.42;;;;;;;;;;5003264;28;20081;-89
2021/10/15 12:09:02;;;;;;;8.18;2.00;;;;;;;;;;4998995;28;20073;-86
2021/10/15 12:11:38;;;;;;;9.85;1.77;;;;;;;;;;5032049;28;20622;-87
2021/10/15 12:14:20;;;;;;;15.07;2.28;;;;;;;;;;5006077;28;20077;-90
2021/10/15 12:16:50;;;;;;;16.08;2.30;;;;;;;;;;5000053;28;20644;-91
2021/10/15 12:19:18;;;;;;;14.70;2.10;;;;;;;;;;5011551;28;20054;-90
2021/10/15 12:21:46;;;;;;;17.75;2.08;;;;;;;;;;5003255;28;20049;-88
2021/10/15 12:24:23;;;;;;;14.32;2.10;;;;;;;;;;5014440;28;20563;-87
2021/10/15 12:27:20;;;;;;;12.85;2.80;;;;;;;;;;4998308;28;20069;-85
2021/10/15 12:29:51;;;;;;;17.77;2.50;;;;;;;;;;4992571;28;20144;-86
2021/10/15 12:32:22;;;;;;;17.02;2.35;;;;;;;;;;5012343;28;20073;-86
2021/10/15 12:35:01;;;;;;;18.63;2.42;;;;;;;;;;5000352;28;20042;-86
2021/10/15 12:37:32;;;;;;;15.48;2.97;;;;;;;;;;5000112;28;20128;-83
2021/10/15 12:40:18;;;;;;;15.32;3.67;;;;;;;;;;5020550;28;20104;-86
2021/10/15 12:42:55;;;;;;;11.20;1.95;;;;;;;;;;5028888;28;20053;-87
2021/10/15 12:45:26;;;;;;;17.02;2.35;;;;;;;;;;5012560;28;20769;-84
2021/10/15 12:48:13;;;;;;;12.45;2.97;;;;;;;;;;4993984;28;20136;-86
2021/10/15 12:50:42;;;;;;;16.27;2.28;;;;;;;;;;5000866;28;20042;-84
2021/10/15 12:53:19;;;;;;;14.43;2.72;;;;;;;;;;5013866;28;20053;-85
2021/10/15 12:55:55;;;;;;;10.98;1.90;;;;;;;;;;5011688;28;20053;-85
2021/10/15 12:58:30;;;;;;;18.27;2.65;;;;;;;;;;5019133;28;20057;-85
2021/10/15 13:01:00;;;;;;;18.17;2.95;;;;;;;;;;5015157;28;20483;-87
2021/10/15 13:03:28;;;;;;;13.18;2.00;;;;;;;;;;5019312;28;20045;-89
2021/10/15 13:05:56;;;;;;;8.65;1.80;;;;;;;;;;5018529;28;20133;-86
2021/10/15 13:08:25;;;;;;;17.50;2.55;;;;;;;;;;5026628;28;20402;-87
2021/10/15 13:10:52;;;;;;;16.23;2.28;;;;;;;;;;5013772;28;20111;-82
2021/10/15 13:13:20;;;;;;;21.13;2.90;;;;;;;;;;5010055;28;20073;-83
2021/10/15 13:15:50;;;;;;;22.83;2.70;;;;;;;;;;5005858;28;20045;-84
2021/10/15 13:18:17;;;;;;;15.95;2.75;;;;;;;;;;5018781;28;20053;-82
2021/10/15 13:20:51;;;;;;;18.38;3.47;;;;;;;;;;5025699;28;20065;-83
2021/10/15 13:23:18;;;;;;;21.90;6.15;;;;;;;;;;5015278;28;20449;-83
2021/10/15 13:25:46;;;;;;;34.92;14.55;;;;;;;;;;5028713;28;20091;-82
2021/10/15 13:28:13;;;;;;;31.90;7.10;;;;;;;;;;5008775;28;20099;-84
2021/10/15 13:30:41;;;;;;;16.10;4.47;;;;;;;;;;5040038;28;20045;-81
2021/10/15 13:33:08;;;;;;;15.73;3.85;;;;;;;;;;5042481;28;20136;-81
2021/10/15 13:35:36;;;;;;;20.05;4.80;;;;;;;;;;5010856;28;20107;-82
2021/10/15 13:38:08;;;;;;;18.27;6.18;;;;;;;;;;5022559;28;20503;-81
2021/10/15 13:40:49;;;;;;;22.67;5.28;;;;;;;;;;5022999;28;20045;-82
2021/10/15 13:51:01;;;;;;;23.42;3.97;;;;;;;;;;5019706;28;19926;-84
2021/10/15 13:53:31;;;;;;;15.93;4.88;;;;;;;;;;5010741;28;20052;-85
2021/10/15 13:56:07;;;;;;;20.33;5.05;;;;;;;;;;5030131;28;20100;-88
2021/10/15 13:58:37;;;;;;;23.30;8.00;;;;;;;;;;5014929;28;20050;-86
2021/10/15 14:01:13;;;;;;;15.10;4.07;;;;;;;;;;5010131;28;20045;-86
2021/10/15 14:03:52;;;;;;;18.73;5.25;;;;;;;;;;5004545;28;20698;-88
2021/10/15 14:06:20;;;;;;;12.73;4.00;;;;;;;;;;5021783;28;20103;-86
2021/10/15 14:08:47;;;;;;;32.63;4.50;;;;;;;;;;5009450;28;20745;-85
2021/10/15 14:11:19;;;;;;;12.82;2.55;;;;;;;;;;5028577;28;20108;-88
2021/10/15 14:13:50;;;;;;;13.13;1.95;;;;;;;;;;5011698;28;20776;-86
2021/10/15 14:16:20;;;;;;;23.83;3.42;;;;;;;;;;5009816;28;20062;-84
2021/10/15 14:18:49;;;;;;;10.98;2.17;;;;;;;;;;5007224;28;20045;-85
2021/10/15 14:21:16;;;;;;;11.52;2.80;;;;;;;;;;5027646;28;20053;-86
2021/10/15 14:23:47;;;;;;;12.63;2.50;;;;;;;;;;5012239;28;20111;-87
2021/10/15 14:26:16;;;;;;;14.82;2.30;;;;;;;;;;5003958;28;20049;-89
2021/10/15 14:28:46;;;;;;;11.63;2.10;;;;;;;;;;5020201;28;20050;-84
2021/10/15 14:31:13;;;;;;;19.67;2.15;;;;;;;;;;5019295;28;20125;-87
2021/10/15 14:33:41;;;;;;;14.30;2.10;;;;;;;;;;5021339;28;20081;-88
2021/10/15 14:36:09;;;;;;;17.35;1.83;;;;;;;;;;5007541;28;20051;-91
2021/10/15 14:38:39;;;;;;;8.23;1.85;;;;;;;;;;5007922;28;20083;-92
2021/10/15 14:41:07;;;;;;;13.75;2.08;;;;;;;;;;5009025;28;20139;-91
2021/10/15 14:43:38;;;;;;;21.58;2.80;;;;;;;;;;5015298;28;20720;-91
2021/10/15 14:46:14;;;;;;;15.20;1.65;;;;;;;;;;5029191;28;20049;-92
2021/10/15 14:48:44;;;;;;;25.05;2.70;;;;;;;;;;5006688;28;20073;-92
2021/10/15 14:51:15;;;;;;;17.17;1.90;;;;;;;;;;5005820;28;20930;-91
2021/10/15 14:53:42;;;;;;;19.27;2.17;;;;;;;;;;5019384;28;20140;-91
2021/10/15 14:56:10;;;;;;;10.40;2.08;;;;;;;;;;5016263;28;20053;-86
2021/10/15 14:58:38;;;;;;;15.77;1.63;;;;;;;;;;4997523;28;20057;-86
2021/10/15 15:01:09;;;;;;;15.57;2.80;;;;;;;;;;5030081;28;20053;-90
2021/10/15 15:03:37;;;;;;;30.20;2.90;;;;;;;;;;5026449;28;20047;-86
2021/10/15 15:06:05;;;;;;;21.50;2.40;;;;;;;;;;5015363;28;20045;-89
2021/10/15 15:08:32;;;;;;;11.30;2.15;;;;;;;;;;5028127;28;20073;-84
2021/10/15 15:11:01;;;;;;;14.63;2.53;;;;;;;;;;5016911;28;20124;-89
2021/10/15 15:13:28;;;;;;;11.90;2.25;;;;;;;;;;5005488;28;20104;-88
2021/10/15 15:15:58;;;;;;;17.02;2.65;;;;;;;;;;5026666;28;20050;-87
2021/10/15 15:18:33;;;;;;;17.65;2.22;;;;;;;;;;5023607;28;20842;-95
2021/10/15 15:21:10;;;;;;;17.85;2.85;;;;;;;;;;5033939;28;20080;-88
2021/10/15 15:23:38;;;;;;;44.70;3.95;;;;;;;;;;5006101;28;20073;-86
2021/10/15 15:26:06;;;;;;;14.82;3.47;;;;;;;;;;5010182;28;20160;-89
2021/10/15 15:28:38;;;;;;;14.32;2.28;;;;;;;;;;5024254;28;20487;-91
2021/10/15 15:31:06;;;;;;;13.40;1.50;;;;;;;;;;5012939;28;20105;-82